Time;durP1;ratioP1;P1;durP2;ratioP2;P2;SDS_P1;SDS_P2;PMS_P1;PMS_P2;Temp;Humidity;BMP_temperature;BMP_pressure;BME280_temperature;BME280_humidity;BME280_pressure;Samples;Min_cycle;Max_cycle;Signal;HPM_P1;HPM_P2
2023/08/26 00:02:51;;;;;;;15.52;10.32;;;;;;;;;;6258203;28;20452;-51
2023/08/26 00:05:52;;;;;;;14.57;9.80;;;;;;;;;;6256004;28;20083;-51
2023/08/26 00:08:53;;;;;;;13.00;10.03;;;;;;;;;;6259117;28;20461;-48
2023/08/26 00:11:54;;;;;;;15.82;9.57;;;;;;;;;;6256039;28;20082;-48
2023/08/26 00:14:54;;;;;;;13.43;9.03;;;;;;;;;;6258303;28;20048;-52
2023/08/26 00:17:55;;;;;;;14.90;8.80;;;;;;;;;;6256407;28;20037;-49
2023/08/26 00:20:57;;;;;;;15.43;9.03;;;;;;;;;;6258886;28;20302;-51
2023/08/26 00:23:58;;;;;;;14.35;9.38;;;;;;;;;;6257271;28;20052;-49
2023/08/26 00:26:59;;;;;;;13.83;9.00;;;;;;;;;;6256629;28;20416;-52
2023/08/26 00:29:59;;;;;;;11.83;8.30;;;;;;;;;;6258504;28;20136;-50
2023/08/26 00:33:00;;;;;;;13.13;8.43;;;;;;;;;;6257261;28;20045;-50
2023/08/26 00:36:01;;;;;;;12.67;8.93;;;;;;;;;;6257456;28;20499;-49
2023/08/26 00:39:01;;;;;;;13.13;8.07;;;;;;;;;;6257445;28;20044;-52
2023/08/26 00:42:02;;;;;;;12.10;8.03;;;;;;;;;;6255924;28;20416;-54
2023/08/26 00:45:04;;;;;;;15.50;8.03;;;;;;;;;;6258328;28;20057;-52
2023/08/26 00:48:08;;;;;;;9.57;7.35;;;;;;;;;;6257852;28;20071;-52
2023/08/26 00:51:09;;;;;;;12.65;8.40;;;;;;;;;;6255885;28;20075;-49
2023/08/26 00:54:10;;;;;;;;;;;;;;;;;;6257386;28;20053;-50
2023/08/26 00:57:11;;;;;;;11.80;7.40;;;;;;;;;;6256103;28;19932;-50
2023/08/26 01:00:12;;;;;;;14.33;7.70;;;;;;;;;;6255872;28;20045;-52
2023/08/26 01:03:12;;;;;;;11.47;7.93;;;;;;;;;;6256082;28;20040;-52
2023/08/26 01:06:13;;;;;;;15.03;9.30;;;;;;;;;;6258260;28;20154;-54
2023/08/26 01:09:14;;;;;;;12.20;8.60;;;;;;;;;;6258177;28;20140;-48
2023/08/26 01:12:20;;;;;;;11.13;7.97;;;;;;;;;;6257848;28;20041;-48
2023/08/26 01:15:22;;;;;;;14.52;9.02;;;;;;;;;;6257092;28;20408;-48
2023/08/26 01:18:23;;;;;;;;;;;;;;;;;;6258724;28;20051;-54
2023/08/26 01:21:35;;;;;;;13.80;9.07;;;;;;;;;;6257756;28;20295;-51
2023/08/26 01:24:40;;;;;;;15.30;9.18;;;;;;;;;;6258933;28;20045;-50
2023/08/26 01:27:41;;;;;;;12.30;8.57;;;;;;;;;;6257024;28;20559;-49
2023/08/26 01:30:41;;;;;;;11.87;8.60;;;;;;;;;;6254882;28;20073;-53
2023/08/26 01:34:20;;;;;;;13.13;8.63;;;;;;;;;;6258251;28;20631;-51
2023/08/26 01:37:22;;;;;;;14.45;8.70;;;;;;;;;;6260448;28;20048;-51
2023/08/26 01:40:23;;;;;;;11.63;8.27;;;;;;;;;;6261837;28;20496;-52
2023/08/26 01:43:25;;;;;;;12.65;8.75;;;;;;;;;;6258138;28;20048;-50
2023/08/26 01:46:38;;;;;;;12.43;8.48;;;;;;;;;;6257544;28;20089;-51
2023/08/26 01:49:39;;;;;;;11.85;8.30;;;;;;;;;;6259597;28;20102;-49
2023/08/26 01:52:41;;;;;;;14.03;9.00;;;;;;;;;;6254707;28;20045;-49
2023/08/26 01:55:42;;;;;;;14.30;8.63;;;;;;;;;;6257242;28;20086;-48
2023/08/26 01:58:42;;;;;;;11.30;8.37;;;;;;;;;;6262590;28;20447;-53
2023/08/26 02:01:43;;;;;;;11.27;8.30;;;;;;;;;;6262526;28;20159;-49
2023/08/26 02:04:43;;;;;;;12.37;8.47;;;;;;;;;;6259635;28;20044;-48
2023/08/26 02:07:44;;;;;;;12.20;8.47;;;;;;;;;;6261639;28;20198;-50
2023/08/26 02:10:53;;;;;;;11.63;8.40;;;;;;;;;;6260987;28;20060;-49
2023/08/26 02:13:54;;;;;;;12.45;8.13;;;;;;;;;;6261235;28;20133;-52
2023/08/26 02:16:54;;;;;;;10.50;8.20;;;;;;;;;;6258635;28;20040;-52
2023/08/26 02:19:55;;;;;;;12.43;8.87;;;;;;;;;;6261767;28;20037;-49
2023/08/26 02:22:55;;;;;;;12.67;8.73;;;;;;;;;;6259703;28;20049;-51
2023/08/26 02:25:56;;;;;;;12.07;8.37;;;;;;;;;;6257962;28;20135;-54
2023/08/26 02:28:56;;;;;;;12.63;8.73;;;;;;;;;;6262591;28;20472;-53
2023/08/26 02:31:57;;;;;;;11.63;8.13;;;;;;;;;;6261204;28;20075;-53
2023/08/26 02:34:58;;;;;;;12.17;8.07;;;;;;;;;;6260756;28;20706;-52
2023/08/26 02:37:58;;;;;;;11.63;7.57;;;;;;;;;;6261060;28;20044;-52
2023/08/26 02:40:59;;;;;;;12.53;8.33;;;;;;;;;;6260803;28;20396;-53
2023/08/26 02:44:00;;;;;;;12.38;8.32;;;;;;;;;;6258383;28;20057;-52
2023/08/26 02:47:00;;;;;;;13.80;8.57;;;;;;;;;;6261340;28;20533;-51
2023/08/26 02:50:02;;;;;;;11.50;8.40;;;;;;;;;;6258806;28;20116;-54
2023/08/26 02:53:03;;;;;;;10.98;7.88;;;;;;;;;;6259868;28;20063;-50
2023/08/26 02:56:03;;;;;;;12.85;8.52;;;;;;;;;;6258216;28;20041;-49
2023/08/26 02:59:04;;;;;;;13.27;8.57;;;;;;;;;;6259603;28;20041;-52
2023/08/26 03:02:06;;;;;;;9.77;8.17;;;;;;;;;;6260218;28;20087;-53
2023/08/26 03:05:06;;;;;;;11.43;7.82;;;;;;;;;;6260856;28;20049;-54
2023/08/26 03:08:07;;;;;;;11.00;8.27;;;;;;;;;;6258186;28;20054;-51
2023/08/26 03:11:09;;;;;;;11.10;7.97;;;;;;;;;;6257930;28;20049;-50
2023/08/26 03:14:10;;;;;;;13.05;7.95;;;;;;;;;;6262628;28;20039;-52
2023/08/26 03:17:10;;;;;;;13.30;8.97;;;;;;;;;;6264361;28;20567;-56
2023/08/26 03:20:12;;;;;;;15.73;8.07;;;;;;;;;;6258759;28;20040;-52
2023/08/26 03:23:12;;;;;;;13.15;9.00;;;;;;;;;;6258866;28;20989;-51
2023/08/26 03:26:13;;;;;;;12.97;9.97;;;;;;;;;;6258140;28;20057;-53
2023/08/26 03:29:14;;;;;;;12.27;8.40;;;;;;;;;;6260096;28;20045;-52
2023/08/26 03:32:15;;;;;;;13.40;8.70;;;;;;;;;;6257179;28;20404;-51
2023/08/26 03:35:15;;;;;;;13.90;8.73;;;;;;;;;;6259164;28;20053;-49
2023/08/26 03:38:16;;;;;;;12.10;8.67;;;;;;;;;;6259045;28;20041;-53
2023/08/26 03:41:16;;;;;;;14.57;9.27;;;;;;;;;;6260525;28;20053;-52
2023/08/26 03:44:17;;;;;;;11.00;9.20;;;;;;;;;;6256896;28;20122;-53
2023/08/26 03:47:17;;;;;;;11.60;8.80;;;;;;;;;;6257149;28;20053;-52
2023/08/26 03:50:18;;;;;;;14.00;10.13;;;;;;;;;;6258702;28;20049;-51
2023/08/26 03:53:19;;;;;;;10.70;8.37;;;;;;;;;;6256526;28;20103;-55
2023/08/26 03:56:20;;;;;;;12.15;9.65;;;;;;;;;;6258766;28;20049;-53
2023/08/26 03:59:20;;;;;;;13.13;9.43;;;;;;;;;;6260205;28;20055;-52
2023/08/26 04:02:21;;;;;;;11.60;8.80;;;;;;;;;;6256775;28;20571;-54
2023/08/26 04:05:22;;;;;;;12.83;9.13;;;;;;;;;;6258951;28;20056;-54
2023/08/26 04:08:23;;;;;;;11.57;8.65;;;;;;;;;;6258740;28;20926;-51
2023/08/26 04:11:23;;;;;;;10.43;9.10;;;;;;;;;;6259454;28;20056;-53
2023/08/26 04:14:24;;;;;;;14.87;9.13;;;;;;;;;;6259254;28;20045;-50
2023/08/26 04:17:24;;;;;;;12.27;9.63;;;;;;;;;;6259832;28;20558;-52
2023/08/26 04:20:25;;;;;;;12.07;9.17;;;;;;;;;;6260382;28;20554;-53
2023/08/26 04:23:26;;;;;;;11.93;9.60;;;;;;;;;;6258218;28;20488;-51
2023/08/26 04:26:26;;;;;;;11.97;9.50;;;;;;;;;;6257157;28;20095;-53
2023/08/26 04:29:27;;;;;;;15.70;9.27;;;;;;;;;;6258476;28;20480;-51
2023/08/26 04:32:27;;;;;;;13.17;9.67;;;;;;;;;;6255824;28;20070;-52
2023/08/26 04:35:28;;;;;;;13.37;8.57;;;;;;;;;;6259744;28;20091;-53
2023/08/26 04:38:30;;;;;;;13.67;9.50;;;;;;;;;;6263902;28;20202;-52
2023/08/26 04:41:30;;;;;;;12.55;9.25;;;;;;;;;;6257683;28;20037;-53
2023/08/26 04:44:31;;;;;;;15.73;9.83;;;;;;;;;;6257344;28;20061;-55
2023/08/26 04:47:31;;;;;;;15.53;9.43;;;;;;;;;;6257825;28;20041;-52
2023/08/26 04:50:32;;;;;;;14.20;10.00;;;;;;;;;;6259603;28;20472;-53
2023/08/26 04:53:32;;;;;;;15.63;10.10;;;;;;;;;;6258123;28;20041;-53
2023/08/26 04:56:33;;;;;;;13.83;10.30;;;;;;;;;;6258653;28;20641;-51
2023/08/26 04:59:33;;;;;;;14.27;10.00;;;;;;;;;;6257843;28;20095;-53
2023/08/26 05:02:34;;;;;;;17.03;10.80;;;;;;;;;;6259232;28;20053;-49
2023/08/26 05:05:35;;;;;;;15.03;10.33;;;;;;;;;;6257152;28;20094;-57
2023/08/26 05:08:35;;;;;;;12.73;9.63;;;;;;;;;;6258104;28;20057;-53
2023/08/26 05:11:36;;;;;;;18.60;11.30;;;;;;;;;;6256275;28;20060;-49
2023/08/26 05:14:37;;;;;;;15.13;11.10;;;;;;;;;;6260878;28;20805;-50
2023/08/26 05:17:37;;;;;;;17.63;11.00;;;;;;;;;;6258932;28;20049;-52
2023/08/26 05:20:43;;;;;;;18.33;11.90;;;;;;;;;;6260664;28;20049;-52
2023/08/26 05:23:44;;;;;;;16.73;11.25;;;;;;;;;;6259495;28;20049;-49
2023/08/26 05:26:44;;;;;;;17.03;12.00;;;;;;;;;;6260937;28;20503;-53
2023/08/26 05:29:46;;;;;;;18.80;12.57;;;;;;;;;;6262810;28;20132;-56
2023/08/26 05:32:46;;;;;;;19.33;12.40;;;;;;;;;;6265858;28;20056;-54
2023/08/26 05:35:47;;;;;;;19.30;12.17;;;;;;;;;;6266862;28;20045;-53
2023/08/26 05:38:47;;;;;;;20.17;13.67;;;;;;;;;;6268308;28;20045;-53
2023/08/26 05:41:48;;;;;;;21.33;13.60;;;;;;;;;;6264055;28;20408;-55
2023/08/26 05:44:49;;;;;;;18.53;13.37;;;;;;;;;;6263891;28;20053;-52
2023/08/26 05:47:50;;;;;;;22.33;14.43;;;;;;;;;;6268066;28;20037;-52
2023/08/26 05:50:50;;;;;;;19.92;14.50;;;;;;;;;;6265989;28;20053;-55
2023/08/26 05:53:51;;;;;;;17.87;14.07;;;;;;;;;;6267768;28;20068;-53
2023/08/26 05:56:52;;;;;;;21.40;14.23;;;;;;;;;;6269615;28;20351;-52
2023/08/26 05:59:52;;;;;;;17.70;14.10;;;;;;;;;;6266217;28;20052;-54
2023/08/26 06:02:53;;;;;;;15.20;12.97;;;;;;;;;;6259847;28;20582;-53
2023/08/26 06:05:53;;;;;;;19.20;12.93;;;;;;;;;;6269694;28;20052;-49
2023/08/26 06:08:54;;;;;;;17.17;13.43;;;;;;;;;;6269564;28;20135;-55
2023/08/26 06:11:55;;;;;;;18.60;13.47;;;;;;;;;;6269279;28;20496;-54
2023/08/26 06:14:56;;;;;;;18.23;14.57;;;;;;;;;;6268788;28;20056;-55
2023/08/26 06:17:56;;;;;;;19.90;13.90;;;;;;;;;;6269931;28;20045;-53
2023/08/26 06:20:57;;;;;;;19.70;13.83;;;;;;;;;;6266432;28;20052;-53
2023/08/26 06:23:57;;;;;;;15.23;11.20;;;;;;;;;;6259627;28;20049;-53
2023/08/26 06:26:58;;;;;;;16.17;10.93;;;;;;;;;;6267910;28;20045;-52
2023/08/26 06:30:02;;;;;;;17.30;10.93;;;;;;;;;;6265959;28;20041;-53
2023/08/26 06:33:03;;;;;;;15.55;11.23;;;;;;;;;;6264849;28;20045;-50
2023/08/26 06:36:04;;;;;;;14.47;10.83;;;;;;;;;;6262672;28;20041;-52
2023/08/26 06:39:05;;;;;;;15.15;10.95;;;;;;;;;;6266724;28;20403;-53
2023/08/26 06:42:06;;;;;;;14.43;10.80;;;;;;;;;;6265846;28;20514;-52
2023/08/26 06:45:07;;;;;;;17.80;12.23;;;;;;;;;;6264481;28;20045;-50
2023/08/26 06:48:07;;;;;;;15.48;12.18;;;;;;;;;;6262721;28;20049;-54
2023/08/26 06:51:08;;;;;;;17.77;13.10;;;;;;;;;;6266017;28;20575;-52
2023/08/26 06:54:09;;;;;;;19.80;13.23;;;;;;;;;;6264131;28;20051;-51
2023/08/26 06:57:09;;;;;;;18.37;12.37;;;;;;;;;;6264135;28;20068;-52
2023/08/26 07:00:11;;;;;;;14.27;10.37;;;;;;;;;;6263837;28;20044;-50
2023/08/26 07:03:12;;;;;;;15.20;11.07;;;;;;;;;;6263031;28;20123;-50
2023/08/26 07:06:13;;;;;;;15.53;10.37;;;;;;;;;;6265200;28;20056;-52
2023/08/26 07:09:14;;;;;;;16.20;10.10;;;;;;;;;;6261608;28;20045;-53
2023/08/26 07:12:15;;;;;;;14.80;9.75;;;;;;;;;;6262340;28;20132;-50
2023/08/26 07:15:16;;;;;;;12.93;8.70;;;;;;;;;;6262630;28;20121;-49
2023/08/26 07:18:17;;;;;;;11.18;8.40;;;;;;;;;;6265216;28;20057;-54
2023/08/26 07:21:18;;;;;;;12.10;8.07;;;;;;;;;;6261676;28;20068;-52
2023/08/26 07:24:19;;;;;;;11.85;8.32;;;;;;;;;;6261597;28;20317;-52
2023/08/26 07:27:20;;;;;;;13.07;7.90;;;;;;;;;;6264995;28;20049;-56
2023/08/26 07:30:21;;;;;;;11.87;8.17;;;;;;;;;;6265661;28;20110;-53
2023/08/26 07:33:21;;;;;;;11.00;8.10;;;;;;;;;;6258267;28;20053;-53
2023/08/26 07:36:22;;;;;;;14.70;8.10;;;;;;;;;;6259335;28;20044;-53
2023/08/26 07:39:24;;;;;;;11.67;7.63;;;;;;;;;;6255279;28;20060;-52
2023/08/26 07:42:24;;;;;;;9.82;7.72;;;;;;;;;;6257066;28;20297;-53
2023/08/26 07:45:25;;;;;;;8.83;6.30;;;;;;;;;;6258542;28;20049;-53
2023/08/26 07:48:25;;;;;;;8.93;6.27;;;;;;;;;;6259389;28;20769;-55
2023/08/26 07:51:26;;;;;;;11.73;6.13;;;;;;;;;;6258124;28;20569;-53
2023/08/26 07:54:26;;;;;;;10.30;6.47;;;;;;;;;;6257501;28;20064;-52
2023/08/26 07:57:27;;;;;;;8.40;5.93;;;;;;;;;;6259506;28;20045;-56
2023/08/26 08:00:28;;;;;;;8.30;5.53;;;;;;;;;;6257491;28;20310;-53
2023/08/26 08:03:28;;;;;;;7.43;5.17;;;;;;;;;;6256469;28;20048;-54
2023/08/26 08:06:29;;;;;;;7.37;4.80;;;;;;;;;;6256894;28;20630;-53
2023/08/26 08:09:29;;;;;;;7.63;4.57;;;;;;;;;;6260166;28;20641;-53
2023/08/26 08:12:30;;;;;;;5.60;4.20;;;;;;;;;;6258657;28;20049;-50
2023/08/26 08:15:31;;;;;;;5.83;4.03;;;;;;;;;;6259800;28;20040;-52
2023/08/26 08:18:31;;;;;;;6.00;3.93;;;;;;;;;;6258113;28;20309;-55
2023/08/26 08:21:32;;;;;;;7.10;4.63;;;;;;;;;;6258244;28;20333;-54
2023/08/26 08:24:32;;;;;;;7.03;5.30;;;;;;;;;;6257650;28;20302;-55
2023/08/26 08:27:33;;;;;;;8.65;5.15;;;;;;;;;;6258932;28;20540;-52
2023/08/26 08:30:34;;;;;;;11.43;5.35;;;;;;;;;;6258497;28;20056;-53
2023/08/26 08:33:35;;;;;;;7.72;4.85;;;;;;;;;;6258315;28;20076;-54
2023/08/26 08:36:35;;;;;;;8.07;5.13;;;;;;;;;;6258984;28;20048;-52
2023/08/26 08:39:36;;;;;;;9.18;5.18;;;;;;;;;;6261963;28;20360;-54
2023/08/26 08:42:41;;;;;;;9.23;5.15;;;;;;;;;;6257986;28;20040;-53
2023/08/26 08:45:42;;;;;;;7.43;5.10;;;;;;;;;;6256598;28;20041;-53
2023/08/26 08:48:42;;;;;;;9.10;5.13;;;;;;;;;;6258584;28;20052;-54
2023/08/26 08:51:43;;;;;;;7.60;5.13;;;;;;;;;;6258003;28;20059;-53
2023/08/26 08:54:44;;;;;;;9.30;5.40;;;;;;;;;;6258661;28;20049;-53
2023/08/26 08:57:47;;;;;;;7.50;5.20;;;;;;;;;;6257168;28;20090;-54
2023/08/26 09:00:48;;;;;;;8.70;5.70;;;;;;;;;;6255474;28;20504;-55
2023/08/26 09:03:49;;;;;;;9.73;5.60;;;;;;;;;;6256965;28;20052;-55
2023/08/26 09:06:51;;;;;;;7.63;5.23;;;;;;;;;;6261160;28;20057;-52
2023/08/26 09:09:53;;;;;;;8.60;5.10;;;;;;;;;;6263893;28;20053;-50
2023/08/26 09:12:53;;;;;;;10.48;5.38;;;;;;;;;;6263008;28;20051;-52
2023/08/26 09:15:54;;;;;;;7.57;4.65;;;;;;;;;;6262333;28;20471;-53
2023/08/26 09:18:56;;;;;;;7.60;4.68;;;;;;;;;;6261393;28;20048;-53
2023/08/26 09:21:57;;;;;;;8.40;4.75;;;;;;;;;;6261485;28;20113;-54
2023/08/26 09:25:02;;;;;;;6.80;4.10;;;;;;;;;;6262373;28;20488;-53
2023/08/26 09:28:04;;;;;;;5.88;3.83;;;;;;;;;;6261396;28;20106;-54
2023/08/26 09:31:06;;;;;;;7.10;4.10;;;;;;;;;;6259860;28;20049;-55
2023/08/26 09:34:07;;;;;;;5.53;3.60;;;;;;;;;;6259927;28;20049;-53
2023/08/26 09:37:08;;;;;;;7.00;3.43;;;;;;;;;;6260533;28;20099;-54
2023/08/26 09:40:13;;;;;;;7.50;4.07;;;;;;;;;;6267320;28;20055;-50
2023/08/26 09:43:14;;;;;;;5.60;3.92;;;;;;;;;;6261853;28;20064;-52
2023/08/26 09:46:19;;;;;;;6.32;3.85;;;;;;;;;;6267832;28;20044;-54
2023/08/26 09:49:20;;;;;;;6.50;4.10;;;;;;;;;;6269680;28;20049;-60
2023/08/26 09:52:20;;;;;;;8.82;4.20;;;;;;;;;;6269376;28;20083;-52
2023/08/26 09:55:22;;;;;;;8.23;4.83;;;;;;;;;;6268785;28;20049;-54
2023/08/26 09:58:23;;;;;;;8.95;5.30;;;;;;;;;;6269061;28;20049;-53
2023/08/26 10:01:25;;;;;;;6.70;4.80;;;;;;;;;;6262189;28;20041;-53
2023/08/26 10:04:29;;;;;;;9.40;5.07;;;;;;;;;;6263908;28;20064;-53
2023/08/26 10:07:31;;;;;;;7.85;4.93;;;;;;;;;;6268962;28;20498;-52
2023/08/26 10:10:45;;;;;;;8.93;5.28;;;;;;;;;;6269676;28;20105;-57
2023/08/26 10:13:50;;;;;;;6.57;4.95;;;;;;;;;;6257569;28;20045;-56
2023/08/26 10:16:53;;;;;;;8.68;5.00;;;;;;;;;;6257867;28;20427;-54
2023/08/26 10:19:55;;;;;;;10.52;4.80;;;;;;;;;;6254844;28;20106;-56
2023/08/26 10:22:56;;;;;;;6.50;4.63;;;;;;;;;;6269042;28;20199;-53
2023/08/26 10:25:57;;;;;;;6.83;4.60;;;;;;;;;;6268784;28;20828;-53
2023/08/26 10:28:58;;;;;;;7.30;5.05;;;;;;;;;;6248022;28;20064;-54
2023/08/26 10:32:14;;;;;;;8.00;5.07;;;;;;;;;;6254881;28;20048;-57
2023/08/26 10:35:15;;;;;;;7.88;5.18;;;;;;;;;;6268127;28;20052;-56
2023/08/26 10:38:16;;;;;;;8.47;4.87;;;;;;;;;;6268047;28;20160;-59
2023/08/26 10:41:16;;;;;;;10.05;5.30;;;;;;;;;;6269257;28;20464;-53
2023/08/26 10:44:29;;;;;;;7.13;4.80;;;;;;;;;;6268131;28;20053;-52
2023/08/26 10:47:37;;;;;;;7.57;5.35;;;;;;;;;;6268483;28;20057;-53
2023/08/26 10:50:38;;;;;;;10.40;5.13;;;;;;;;;;6267632;28;20121;-54
2023/08/26 10:53:47;;;;;;;8.90;4.72;;;;;;;;;;6256306;28;20049;-54
2023/08/26 10:56:58;;;;;;;7.28;5.22;;;;;;;;;;6268346;28;20048;-54
2023/08/26 11:00:08;;;;;;;7.80;5.32;;;;;;;;;;6252814;28;20049;-54
2023/08/26 11:03:10;;;;;;;8.98;5.20;;;;;;;;;;6261577;28;20092;-55
2023/08/26 11:06:18;;;;;;;11.20;5.20;;;;;;;;;;6267838;28;20155;-54
2023/08/26 11:09:19;;;;;;;10.65;5.82;;;;;;;;;;6267882;28;20060;-53
2023/08/26 11:12:27;;;;;;;8.90;5.65;;;;;;;;;;6267694;28;20041;-50
2023/08/26 11:15:32;;;;;;;8.30;5.60;;;;;;;;;;6265389;28;20260;-50
2023/08/26 11:18:33;;;;;;;8.80;5.82;;;;;;;;;;6248793;28;20045;-53
2023/08/26 11:21:37;;;;;;;11.60;5.90;;;;;;;;;;6245518;28;20038;-54
2023/08/26 11:24:46;;;;;;;7.63;5.53;;;;;;;;;;6258215;28;20049;-49
2023/08/26 11:27:47;;;;;;;9.00;6.22;;;;;;;;;;6255201;28;20416;-52
2023/08/26 11:30:48;;;;;;;8.40;5.73;;;;;;;;;;6266838;28;20052;-55
2023/08/26 11:33:49;;;;;;;7.95;6.07;;;;;;;;;;6267441;28;20293;-53
2023/08/26 11:36:53;;;;;;;8.95;5.57;;;;;;;;;;6267562;28;20044;-54
2023/08/26 11:39:59;;;;;;;14.48;7.30;;;;;;;;;;6267283;28;20396;-55
2023/08/26 11:43:05;;;;;;;10.48;6.80;;;;;;;;;;6253468;28;20041;-54
2023/08/26 11:46:06;;;;;;;9.23;6.90;;;;;;;;;;6264600;28;20510;-53
2023/08/26 11:49:10;;;;;;;10.40;6.38;;;;;;;;;;6255352;28;20090;-55
2023/08/26 11:52:10;;;;;;;13.63;6.70;;;;;;;;;;6261981;28;20060;-52
2023/08/26 11:55:11;;;;;;;10.23;6.40;;;;;;;;;;6251178;28;20068;-55
2023/08/26 11:58:12;;;;;;;11.27;6.27;;;;;;;;;;6253626;28;20328;-49
2023/08/26 12:01:13;;;;;;;8.35;6.38;;;;;;;;;;6256519;28;20083;-49
2023/08/26 12:04:16;;;;;;;11.80;6.80;;;;;;;;;;6253346;28;20045;-54
2023/08/26 12:07:17;;;;;;;11.77;7.10;;;;;;;;;;6257147;28;20057;-53
2023/08/26 12:10:18;;;;;;;11.20;7.70;;;;;;;;;;6254626;28;20057;-53
2023/08/26 12:13:19;;;;;;;12.35;7.78;;;;;;;;;;6254574;28;20660;-58
2023/08/26 12:16:21;;;;;;;10.02;7.45;;;;;;;;;;6257885;28;20056;-52
2023/08/26 12:19:23;;;;;;;13.73;7.95;;;;;;;;;;6254342;28;20262;-49
2023/08/26 12:22:23;;;;;;;12.03;8.20;;;;;;;;;;6243050;28;20062;-53
2023/08/26 12:25:25;;;;;;;12.43;8.53;;;;;;;;;;6245497;28;20052;-51
2023/08/26 12:28:25;;;;;;;;;;;;;;;;;;6246373;28;20168;-53
2023/08/26 12:31:27;;;;;;;12.27;7.93;;;;;;;;;;6244962;28;19928;-51
2023/08/26 12:34:28;;;;;;;10.60;7.25;;;;;;;;;;6244681;28;20049;-53
2023/08/26 12:37:29;;;;;;;15.10;7.87;;;;;;;;;;6246102;28;20091;-53
2023/08/26 12:40:31;;;;;;;14.90;7.95;;;;;;;;;;6246176;28;20059;-50
2023/08/26 12:43:32;;;;;;;12.07;7.85;;;;;;;;;;6244329;28;20041;-52
2023/08/26 12:46:33;;;;;;;10.90;7.60;;;;;;;;;;6246863;28;20060;-50
2023/08/26 12:49:34;;;;;;;;;;;;;;;;;;6250883;28;20465;-50
2023/08/26 12:52:34;;;;;;;12.27;6.60;;;;;;;;;;6251213;28;19932;-54
2023/08/26 12:55:35;;;;;;;12.10;7.53;;;;;;;;;;6255527;28;20037;-53
2023/08/26 12:58:35;;;;;;;13.20;8.27;;;;;;;;;;6256484;28;20045;-54
2023/08/26 13:01:36;;;;;;;11.53;6.83;;;;;;;;;;6258492;28;20045;-53
2023/08/26 13:04:36;;;;;;;9.67;6.50;;;;;;;;;;6258802;28;20049;-51
2023/08/26 13:07:38;;;;;;;10.07;6.43;;;;;;;;;;6255637;28;20451;-53
2023/08/26 13:10:38;;;;;;;9.98;6.85;;;;;;;;;;6253333;28;20045;-51
2023/08/26 13:13:39;;;;;;;11.83;6.67;;;;;;;;;;6255153;28;20501;-53
2023/08/26 13:16:39;;;;;;;10.90;7.00;;;;;;;;;;6260142;28;20056;-50
2023/08/26 13:19:40;;;;;;;11.80;6.90;;;;;;;;;;6255366;28;20081;-53
2023/08/26 13:22:41;;;;;;;11.03;7.30;;;;;;;;;;6254625;28;20052;-52
2023/08/26 13:25:41;;;;;;;11.63;7.53;;;;;;;;;;6240673;28;20064;-52
2023/08/26 13:28:43;;;;;;;14.13;6.97;;;;;;;;;;6245223;28;20049;-52
2023/08/26 13:31:44;;;;;;;10.68;7.50;;;;;;;;;;6248161;28;20048;-51
2023/08/26 13:34:45;;;;;;;10.87;6.70;;;;;;;;;;6242009;28;20411;-59
2023/08/26 13:37:45;;;;;;;10.10;6.88;;;;;;;;;;6246674;28;20571;-53
2023/08/26 13:40:46;;;;;;;9.47;6.87;;;;;;;;;;6245431;28;20049;-52
2023/08/26 13:43:46;;;;;;;10.10;6.53;;;;;;;;;;6242805;28;20584;-51
2023/08/26 13:46:47;;;;;;;12.13;7.07;;;;;;;;;;6242765;28;20058;-52
2023/08/26 13:49:48;;;;;;;9.30;6.50;;;;;;;;;;6245960;28;20053;-51
2023/08/26 13:52:48;;;;;;;11.63;6.47;;;;;;;;;;6250833;28;20041;-52
2023/08/26 13:55:57;;;;;;;11.03;5.90;;;;;;;;;;6247760;28;20045;-51
2023/08/26 13:59:00;;;;;;;11.07;6.22;;;;;;;;;;6251312;28;20048;-51
2023/08/26 14:02:01;;;;;;;10.50;6.32;;;;;;;;;;6253370;28;20037;-54
2023/08/26 14:05:02;;;;;;;10.50;6.77;;;;;;;;;;6250566;28;20052;-49
2023/08/26 14:08:02;;;;;;;10.77;7.10;;;;;;;;;;6253431;28;20048;-53
2023/08/26 14:11:03;;;;;;;10.48;7.05;;;;;;;;;;6251048;28;20057;-52
2023/08/26 14:14:04;;;;;;;11.67;6.83;;;;;;;;;;6247506;28;20408;-54
2023/08/26 14:17:04;;;;;;;10.87;6.83;;;;;;;;;;6250146;28;20041;-51
2023/08/26 14:20:05;;;;;;;10.27;6.87;;;;;;;;;;6249124;28;20506;-51
2023/08/26 14:23:06;;;;;;;11.32;7.25;;;;;;;;;;6248456;28;20053;-52
2023/08/26 14:26:07;;;;;;;10.83;7.33;;;;;;;;;;6246634;28;20554;-51
2023/08/26 14:29:07;;;;;;;11.10;6.93;;;;;;;;;;6251481;28;21017;-50
2023/08/26 14:32:08;;;;;;;11.07;7.30;;;;;;;;;;6252110;28;20855;-50
2023/08/26 14:35:08;;;;;;;12.10;7.20;;;;;;;;;;6250194;28;20060;-51
2023/08/26 14:38:09;;;;;;;10.43;7.20;;;;;;;;;;6247749;28;20499;-53
2023/08/26 14:41:10;;;;;;;11.77;7.33;;;;;;;;;;6249333;28;20045;-52
2023/08/26 14:44:11;;;;;;;14.45;7.10;;;;;;;;;;6247024;28;20033;-49
2023/08/26 14:47:11;;;;;;;10.57;7.10;;;;;;;;;;6251401;28;20427;-51
2023/08/26 14:50:12;;;;;;;11.10;7.43;;;;;;;;;;6248368;28;20072;-50
2023/08/26 14:53:13;;;;;;;12.87;7.40;;;;;;;;;;6246943;28;20755;-53
2023/08/26 14:56:13;;;;;;;12.67;7.93;;;;;;;;;;6250486;28;20579;-51
2023/08/26 14:59:14;;;;;;;10.40;7.63;;;;;;;;;;6248211;28;20052;-54
2023/08/26 15:02:16;;;;;;;12.33;7.30;;;;;;;;;;6245371;28;20091;-50
2023/08/26 15:05:16;;;;;;;9.63;7.50;;;;;;;;;;6244644;28;20064;-49
2023/08/26 15:08:17;;;;;;;11.40;7.00;;;;;;;;;;6246751;28;20116;-53
2023/08/26 15:11:17;;;;;;;9.27;6.60;;;;;;;;;;6247034;28;20052;-50
2023/08/26 15:14:18;;;;;;;11.43;6.97;;;;;;;;;;6245878;28;20106;-53
2023/08/26 15:17:19;;;;;;;14.53;7.63;;;;;;;;;;6247267;28;20792;-51
2023/08/26 15:20:19;;;;;;;13.73;6.97;;;;;;;;;;6247232;28;20142;-50
2023/08/26 15:23:20;;;;;;;9.03;6.97;;;;;;;;;;6248829;28;20501;-52
2023/08/26 15:26:21;;;;;;;11.80;7.03;;;;;;;;;;6245616;28;20115;-50
2023/08/26 15:29:21;;;;;;;10.93;7.50;;;;;;;;;;6253153;28;20057;-50
2023/08/26 15:32:22;;;;;;;10.93;7.50;;;;;;;;;;6255046;28;20151;-51
2023/08/26 15:35:22;;;;;;;9.27;7.40;;;;;;;;;;6256981;28;20115;-52
2023/08/26 15:38:23;;;;;;;9.30;7.20;;;;;;;;;;6256022;28;20140;-51
2023/08/26 15:41:24;;;;;;;12.40;8.27;;;;;;;;;;6254949;28;20041;-53
2023/08/26 15:44:24;;;;;;;13.50;8.40;;;;;;;;;;6250177;28;20041;-47
2023/08/26 15:47:25;;;;;;;13.67;8.40;;;;;;;;;;6257776;28;20097;-50
2023/08/26 15:50:26;;;;;;;11.77;8.37;;;;;;;;;;6255217;28;20084;-51
2023/08/26 15:53:27;;;;;;;11.40;7.80;;;;;;;;;;6249909;28;20051;-49
2023/08/26 15:56:27;;;;;;;10.15;7.63;;;;;;;;;;6253691;28;20544;-52
2023/08/26 15:59:28;;;;;;;10.40;7.27;;;;;;;;;;6255692;28;20053;-53
2023/08/26 16:02:29;;;;;;;14.23;7.85;;;;;;;;;;6253840;28;20052;-53
2023/08/26 16:05:35;;;;;;;11.57;7.10;;;;;;;;;;6251465;28;20439;-52
2023/08/26 16:08:37;;;;;;;9.25;6.88;;;;;;;;;;6255445;28;20499;-53
2023/08/26 16:11:38;;;;;;;10.02;7.22;;;;;;;;;;6253484;28;20050;-50
2023/08/26 16:14:39;;;;;;;11.02;7.10;;;;;;;;;;6245371;28;20053;-53
2023/08/26 16:17:40;;;;;;;11.43;7.60;;;;;;;;;;6248562;28;20482;-50
2023/08/26 16:20:40;;;;;;;10.40;6.97;;;;;;;;;;6245227;28;20499;-50
2023/08/26 16:23:41;;;;;;;11.00;7.37;;;;;;;;;;6246060;28;20045;-51
2023/08/26 16:26:42;;;;;;;15.30;7.13;;;;;;;;;;6247781;28;20144;-54
2023/08/26 16:29:42;;;;;;;11.50;6.97;;;;;;;;;;6250459;28;20317;-53
2023/08/26 16:32:43;;;;;;;9.82;6.65;;;;;;;;;;6247006;28;20041;-54
2023/08/26 16:35:43;;;;;;;10.70;6.50;;;;;;;;;;6243655;28;20041;-52
2023/08/26 16:38:44;;;;;;;20.75;14.63;;;;;;;;;;6248328;28;21105;-50
2023/08/26 16:41:45;;;;;;;36.60;24.03;;;;;;;;;;6247515;28;20060;-51
2023/08/26 16:44:45;;;;;;;25.52;18.38;;;;;;;;;;6245084;28;20053;-51
2023/08/26 16:47:46;;;;;;;12.10;7.70;;;;;;;;;;6246694;28;20056;-49
2023/08/26 16:50:47;;;;;;;10.05;6.60;;;;;;;;;;6247184;28;20053;-51
2023/08/26 16:53:47;;;;;;;9.13;6.20;;;;;;;;;;6246572;28;20037;-52
2023/08/26 16:56:48;;;;;;;11.35;6.35;;;;;;;;;;6246620;28;20136;-49
2023/08/26 16:59:49;;;;;;;11.10;7.27;;;;;;;;;;6248158;28;20518;-51
2023/08/26 17:02:50;;;;;;;8.68;6.15;;;;;;;;;;6246631;28;20037;-49
2023/08/26 17:05:51;;;;;;;10.50;7.00;;;;;;;;;;6243649;28;20685;-53
2023/08/26 17:08:51;;;;;;;13.13;6.75;;;;;;;;;;6245280;28;20091;-55
2023/08/26 17:11:54;;;;;;;11.70;6.57;;;;;;;;;;6246260;28;20041;-50
2023/08/26 17:14:55;;;;;;;11.75;6.90;;;;;;;;;;6244692;28;20071;-49
2023/08/26 17:17:55;;;;;;;11.50;6.43;;;;;;;;;;6248127;28;20045;-51
2023/08/26 17:20:56;;;;;;;13.13;7.05;;;;;;;;;;6253887;28;20053;-49
2023/08/26 17:23:57;;;;;;;10.27;6.80;;;;;;;;;;6252963;28;20045;-51
2023/08/26 17:26:57;;;;;;;11.40;7.53;;;;;;;;;;6255816;28;20107;-51
2023/08/26 17:29:58;;;;;;;12.67;7.60;;;;;;;;;;6257568;28;20051;-53
2023/08/26 17:32:59;;;;;;;12.17;7.30;;;;;;;;;;6249655;28;20045;-52
2023/08/26 17:36:00;;;;;;;10.63;7.25;;;;;;;;;;6252906;28;20302;-53
2023/08/26 17:39:00;;;;;;;11.57;7.78;;;;;;;;;;6257741;28;20060;-51
2023/08/26 17:42:03;;;;;;;10.47;7.00;;;;;;;;;;6252066;28;20053;-51
2023/08/26 17:45:04;;;;;;;11.48;7.60;;;;;;;;;;6247657;28;20067;-54
2023/08/26 17:48:05;;;;;;;11.03;7.40;;;;;;;;;;6249978;28;20044;-53
2023/08/26 17:51:06;;;;;;;15.07;8.55;;;;;;;;;;6249890;28;20302;-51
2023/08/26 17:54:06;;;;;;;11.03;7.97;;;;;;;;;;6247996;28;20138;-49
2023/08/26 17:57:07;;;;;;;10.38;7.30;;;;;;;;;;6248542;28;20690;-52